createdAt,value
2023-05-09T00:00:15.388Z,83.46
2023-05-09T00:01:15.411Z,82.99
2023-05-09T00:02:15.449Z,82.85
2023-05-09T00:03:15.473Z,82.99
2023-05-09T00:04:15.476Z,81.45
2023-05-09T00:05:15.824Z,82.48
2023-05-09T00:06:15.630Z,81.66
2023-05-09T00:07:15.657Z,82.40
2023-05-09T00:08:15.566Z,80.32
2023-05-09T00:09:15.564Z,80.82
2023-05-09T00:10:15.632Z,80.78
2023-05-09T00:11:15.621Z,80.93
2023-05-09T00:12:15.632Z,79.72
2023-05-09T00:13:15.674Z,78.37
2023-05-09T00:14:15.663Z,80.12
2023-05-09T00:15:15.816Z,77.75
2023-05-09T00:16:15.795Z,79.00
2023-05-09T00:17:15.792Z,80.19
2023-05-09T00:18:15.762Z,79.76
2023-05-09T00:19:15.775Z,78.71
2023-05-09T00:20:15.802Z,80.24
2023-05-09T00:21:15.803Z,79.10
2023-05-09T00:22:15.808Z,78.69
2023-05-09T00:23:15.907Z,77.95
2023-05-09T00:24:15.829Z,77.86
2023-05-09T00:25:16.099Z,79.15
2023-05-09T00:26:15.816Z,77.91
2023-05-09T00:27:15.853Z,78.15
2023-05-09T00:28:15.866Z,79.05
2023-05-09T00:29:15.872Z,79.76
2023-05-09T00:30:15.940Z,77.16
2023-05-09T00:31:15.901Z,79.09
2023-05-09T00:32:15.962Z,77.36
2023-05-09T00:33:15.942Z,78.19
2023-05-09T00:34:15.996Z,77.60
2023-05-09T00:35:16.229Z,77.00
2023-05-09T00:36:15.998Z,76.86
2023-05-09T00:37:16.037Z,77.01
2023-05-09T00:38:16.029Z,76.99
2023-05-09T00:39:16.133Z,76.94
2023-05-09T00:40:16.109Z,76.56
2023-05-09T00:41:16.109Z,76.56
2023-05-09T00:42:16.094Z,76.00
2023-05-09T00:43:16.104Z,76.69
2023-05-09T00:44:16.117Z,75.17
2023-05-09T00:45:16.220Z,78.06
2023-05-09T00:46:16.220Z,76.54
2023-05-09T00:47:16.221Z,75.20
2023-05-09T00:48:16.220Z,76.46
2023-05-09T00:49:16.263Z,76.89
2023-05-09T00:50:16.257Z,74.45
2023-05-09T00:51:16.268Z,74.72
2023-05-09T00:52:16.307Z,77.09
2023-05-09T00:53:16.350Z,76.14
2023-05-09T00:54:16.349Z,77.11
2023-05-09T00:55:16.667Z,73.63
2023-05-09T00:56:16.391Z,73.50
2023-05-09T00:57:16.417Z,75.55
2023-05-09T00:58:16.453Z,75.50
2023-05-09T00:59:17.587Z,75.55
2023-05-09T01:00:16.474Z,73.72
2023-05-09T01:01:16.548Z,75.19
2023-05-09T01:02:16.545Z,74.35
2023-05-09T01:03:16.612Z,72.49
2023-05-09T01:04:16.584Z,74.20
2023-05-09T01:05:16.789Z,74.04
2023-05-09T01:06:16.657Z,74.17
2023-05-09T01:07:16.649Z,76.08
2023-05-09T01:08:16.641Z,74.97
2023-05-09T01:09:16.662Z,75.38
2023-05-09T01:10:16.714Z,75.65
2023-05-09T01:11:16.809Z,74.61
2023-05-09T01:12:16.738Z,73.89
2023-05-09T01:13:16.783Z,72.67
2023-05-09T01:14:16.789Z,72.39
2023-05-09T01:15:16.915Z,70.76
2023-05-09T01:16:16.877Z,72.74
2023-05-09T01:17:16.858Z,71.92
2023-05-09T01:18:16.885Z,72.34
2023-05-09T01:19:16.911Z,73.35
2023-05-09T01:20:16.947Z,73.05
2023-05-09T01:21:16.921Z,74.29
2023-05-09T01:22:16.948Z,74.14
2023-05-09T01:23:16.988Z,72.68
2023-05-09T01:24:16.986Z,70.99
2023-05-09T01:25:17.084Z,71.87
2023-05-09T01:26:17.014Z,73.45
2023-05-09T01:27:17.103Z,72.64
2023-05-09T01:28:17.033Z,70.96
2023-05-09T01:29:17.078Z,72.31
2023-05-09T01:30:17.111Z,72.72
2023-05-09T01:31:17.162Z,72.06
2023-05-09T01:32:17.114Z,73.65
2023-05-09T01:33:17.139Z,71.14
2023-05-09T01:34:17.150Z,72.07
2023-05-09T01:35:17.240Z,70.08
2023-05-09T01:36:17.237Z,72.09
2023-05-09T01:37:17.216Z,71.01
2023-05-09T01:38:17.242Z,71.02
2023-05-09T01:39:17.262Z,71.52
2023-05-09T01:40:17.297Z,70.40
2023-05-09T01:41:17.313Z,70.12
2023-05-09T01:42:17.331Z,69.97
2023-05-09T01:43:17.438Z,70.18
2023-05-09T01:44:17.392Z,72.52
2023-05-09T01:45:17.547Z,69.80
2023-05-09T01:46:17.468Z,70.48
2023-05-09T01:47:17.479Z,70.45
2023-05-09T01:48:17.443Z,72.60
2023-05-09T01:49:17.468Z,70.92
2023-05-09T01:50:17.517Z,70.19
2023-05-09T01:51:17.551Z,70.78
2023-05-09T01:52:17.564Z,69.68
2023-05-09T01:53:17.578Z,69.99
2023-05-09T01:54:17.629Z,69.41
2023-05-09T01:55:17.611Z,71.46
2023-05-09T01:56:17.673Z,69.56
2023-05-09T01:57:17.671Z,68.97
2023-05-09T01:58:17.701Z,69.99
2023-05-09T01:59:17.825Z,71.43
2023-05-09T02:00:17.741Z,70.16
2023-05-09T02:01:17.810Z,69.06
2023-05-09T02:02:17.804Z,69.74
2023-05-09T02:03:17.879Z,70.42
2023-05-09T02:04:17.826Z,69.22
2023-05-09T02:05:17.958Z,70.20
2023-05-09T02:06:17.825Z,70.55
2023-05-09T02:07:17.869Z,71.16
2023-05-09T02:08:17.896Z,71.80
2023-05-09T02:09:17.933Z,70.92
2023-05-09T02:10:17.953Z,70.65
2023-05-09T02:11:17.969Z,69.65
2023-05-09T02:12:17.989Z,69.86
2023-05-09T02:13:18.075Z,69.93
2023-05-09T02:14:17.998Z,68.46
2023-05-09T02:15:18.100Z,69.47
2023-05-09T02:16:19.988Z,68.61
2023-05-09T02:17:18.182Z,69.99
2023-05-09T02:18:18.179Z,68.75
2023-05-09T02:19:18.191Z,69.14
2023-05-09T02:20:18.235Z,67.36
2023-05-09T02:21:18.258Z,66.77
2023-05-09T02:22:18.342Z,67.75
2023-05-09T02:23:18.260Z,67.89
2023-05-09T02:24:18.291Z,68.93
2023-05-09T02:25:18.301Z,66.90
2023-05-09T02:26:18.341Z,68.12
2023-05-09T02:27:18.358Z,68.90
2023-05-09T02:28:18.360Z,66.92
2023-05-09T02:29:18.417Z,66.98
2023-05-09T02:30:18.437Z,67.36
2023-05-09T02:31:18.538Z,66.77
2023-05-09T02:32:18.491Z,67.55
2023-05-09T02:33:18.503Z,67.23
2023-05-09T02:34:18.500Z,65.64
2023-05-09T02:35:18.549Z,65.40
2023-05-09T02:36:18.552Z,67.31
2023-05-09T02:37:18.575Z,67.14
2023-05-09T02:38:18.597Z,66.76
2023-05-09T02:39:18.629Z,65.62
2023-05-09T02:40:18.649Z,65.34
2023-05-09T02:41:18.661Z,66.79
2023-05-09T02:42:18.686Z,67.00
2023-05-09T02:43:18.705Z,67.06
2023-05-09T02:44:18.722Z,66.23
2023-05-09T02:45:18.760Z,67.99
2023-05-09T02:46:18.783Z,68.58
2023-05-09T02:47:18.857Z,67.50
2023-05-09T02:48:18.816Z,64.48
2023-05-09T02:49:31.356Z,66.25
2023-05-09T02:50:19.838Z,66.34
2023-05-09T02:51:18.804Z,66.47
2023-05-09T02:52:18.801Z,66.27
2023-05-09T02:53:18.810Z,65.81
2023-05-09T02:54:18.810Z,66.23
2023-05-09T02:55:18.776Z,67.06
2023-05-09T02:56:18.818Z,64.35
2023-05-09T02:57:18.772Z,65.01
2023-05-09T02:58:18.757Z,65.01
2023-05-09T02:59:19.446Z,64.65
2023-05-09T03:00:18.723Z,65.19
2023-05-09T03:01:18.760Z,63.79
2023-05-09T03:02:18.748Z,63.45
2023-05-09T03:03:18.951Z,64.62
2023-05-09T03:04:18.719Z,64.19
2023-05-09T03:05:18.709Z,63.18
2023-05-09T03:06:18.689Z,64.06
2023-05-09T03:07:18.706Z,63.40
2023-05-09T03:08:18.673Z,65.31
2023-05-09T03:09:18.684Z,62.95
2023-05-09T03:10:18.690Z,63.18
2023-05-09T03:11:18.711Z,63.16
2023-05-09T03:12:18.674Z,64.47
2023-05-09T03:13:18.696Z,62.23
2023-05-09T03:14:18.661Z,63.52
2023-05-09T03:15:18.723Z,64.56
2023-05-09T03:16:18.789Z,65.58
2023-05-09T03:17:18.757Z,64.35
2023-05-09T03:18:18.782Z,64.36
2023-05-09T03:19:18.878Z,64.86
2023-05-09T03:20:18.862Z,62.11
2023-05-09T03:21:18.847Z,63.64
2023-05-09T03:22:18.853Z,61.01
2023-05-09T03:23:18.882Z,63.63
2023-05-09T03:24:18.889Z,62.28
2023-05-09T03:25:18.927Z,63.49
2023-05-09T03:26:18.940Z,63.61
2023-05-09T03:27:18.978Z,62.55
2023-05-09T03:28:18.964Z,62.73
2023-05-09T03:29:18.997Z,62.11
2023-05-09T03:30:19.002Z,61.35
2023-05-09T03:31:19.056Z,64.04
2023-05-09T03:32:19.095Z,62.10
2023-05-09T03:33:19.098Z,62.14
2023-05-09T03:34:19.112Z,62.62
2023-05-09T03:35:19.184Z,61.00
2023-05-09T03:36:19.173Z,60.79
2023-05-09T03:37:19.194Z,61.84
2023-05-09T03:38:19.208Z,61.77
2023-05-09T03:39:19.230Z,61.36
2023-05-09T03:40:19.295Z,62.94
2023-05-09T03:41:19.274Z,62.42
2023-05-09T03:42:19.257Z,61.87
2023-05-09T03:43:19.308Z,60.28
2023-05-09T03:44:19.336Z,62.37
2023-05-09T03:45:19.345Z,62.25
2023-05-09T03:46:19.452Z,60.64
2023-05-09T03:47:19.422Z,62.43
2023-05-09T03:48:19.419Z,61.05
2023-05-09T03:49:19.451Z,59.60
2023-05-09T03:50:19.479Z,61.57
2023-05-09T03:51:19.584Z,61.23
2023-05-09T03:52:19.529Z,62.37
2023-05-09T03:53:19.544Z,61.34
2023-05-09T03:54:19.577Z,60.25
2023-05-09T03:55:19.613Z,58.13
2023-05-09T03:56:19.603Z,60.47
2023-05-09T03:57:19.650Z,59.22
2023-05-09T03:58:19.688Z,60.91
2023-05-09T03:59:19.713Z,59.93
2023-05-09T04:00:19.727Z,60.87
2023-05-09T04:01:19.714Z,61.56
2023-05-09T04:02:19.761Z,60.47
2023-05-09T04:03:19.862Z,60.01
2023-05-09T04:04:19.805Z,59.30
2023-05-09T04:05:19.857Z,60.14
2023-05-09T04:06:19.834Z,59.47
2023-05-09T04:07:19.954Z,60.21
2023-05-09T04:08:19.918Z,60.85
2023-05-09T04:09:19.940Z,59.91
2023-05-09T04:10:19.982Z,61.33
2023-05-09T04:11:19.981Z,61.31
2023-05-09T04:12:19.993Z,59.38
2023-05-09T04:13:20.054Z,56.69
2023-05-09T04:14:20.054Z,57.78
2023-05-09T04:15:20.080Z,58.91
2023-05-09T04:16:20.196Z,58.40
2023-05-09T04:17:20.230Z,59.79
2023-05-09T04:18:20.128Z,60.83
2023-05-09T04:19:20.205Z,60.62
2023-05-09T04:20:20.244Z,59.54
2023-05-09T04:21:20.216Z,58.56
2023-05-09T04:22:20.282Z,59.56
2023-05-09T04:23:20.381Z,57.55
2023-05-09T04:24:20.323Z,58.72
2023-05-09T04:25:20.326Z,59.78
2023-05-09T04:26:20.363Z,59.45
2023-05-09T04:27:20.360Z,60.13
2023-05-09T04:28:20.502Z,58.46
2023-05-09T04:29:20.424Z,59.30
2023-05-09T04:30:20.444Z,56.94
2023-05-09T04:31:20.558Z,57.33
2023-05-09T04:32:20.533Z,58.96
2023-05-09T04:33:20.559Z,57.25
2023-05-09T04:34:20.558Z,58.44
2023-05-09T04:35:21.106Z,58.11
2023-05-09T04:36:20.613Z,58.05
2023-05-09T04:37:20.622Z,57.28
2023-05-09T04:38:20.638Z,57.09
2023-05-09T04:39:20.754Z,58.24
2023-05-09T04:40:20.687Z,57.98
2023-05-09T04:41:20.730Z,55.90
2023-05-09T04:42:20.755Z,58.34
2023-05-09T04:43:20.781Z,57.24
2023-05-09T04:44:20.820Z,59.12
2023-05-09T04:45:20.823Z,57.92
2023-05-09T04:46:21.796Z,57.47
2023-05-09T04:47:20.877Z,57.19
2023-05-09T04:48:20.898Z,59.72
2023-05-09T04:49:20.923Z,55.86
2023-05-09T04:50:20.945Z,57.05
2023-05-09T04:51:20.982Z,59.77
2023-05-09T04:52:21.031Z,58.27
2023-05-09T04:53:21.039Z,57.56
2023-05-09T04:54:21.035Z,56.96
2023-05-09T04:55:21.139Z,56.32
2023-05-09T04:56:21.114Z,55.94
2023-05-09T04:57:21.112Z,55.18
2023-05-09T04:58:21.169Z,55.28
2023-05-09T04:59:21.146Z,55.34
2023-05-09T05:00:21.198Z,56.12
2023-05-09T05:01:21.321Z,55.04
2023-05-09T05:02:21.341Z,54.61
2023-05-09T05:03:21.267Z,54.37
2023-05-09T05:04:21.355Z,55.65
2023-05-09T05:05:24.719Z,55.47
2023-05-09T05:06:21.314Z,55.58
2023-05-09T05:07:21.313Z,55.48
2023-05-09T05:08:21.314Z,56.11
2023-05-09T05:09:21.284Z,55.64
2023-05-09T05:10:21.335Z,55.33
2023-05-09T05:11:21.366Z,53.52
2023-05-09T05:12:21.251Z,54.68
2023-05-09T05:13:21.340Z,54.61
2023-05-09T05:14:21.253Z,54.68
2023-05-09T05:15:21.218Z,55.20
2023-05-09T05:16:21.267Z,54.33
2023-05-09T05:17:21.254Z,54.14
2023-05-09T05:18:21.239Z,55.46
2023-05-09T05:19:21.185Z,56.72
2023-05-09T05:20:21.285Z,54.99
2023-05-09T05:21:21.198Z,56.11
2023-05-09T05:22:21.186Z,56.25
2023-05-09T05:23:21.145Z,55.88
2023-05-09T05:24:21.179Z,53.71
2023-05-09T05:25:21.180Z,53.59
2023-05-09T05:26:21.189Z,55.93
2023-05-09T05:27:21.230Z,46.48
2023-05-09T05:28:21.143Z,52.10
2023-05-09T05:29:21.119Z,47.77
2023-05-09T05:30:21.185Z,50.72
2023-05-09T05:31:21.227Z,47.75
2023-05-09T05:32:21.176Z,46.84
2023-05-09T05:33:21.089Z,52.05
2023-05-09T05:34:21.106Z,46.54
2023-05-09T05:35:21.097Z,44.81
2023-05-09T05:36:21.114Z,43.77
2023-05-09T05:37:21.507Z,45.59
2023-05-09T05:38:21.107Z,49.33
2023-05-09T05:39:21.083Z,48.68
2023-05-09T05:40:21.131Z,53.25
2023-05-09T05:41:21.089Z,58.17
2023-05-09T05:42:21.504Z,67.14
2023-05-09T05:43:21.187Z,68.21
2023-05-09T05:44:21.067Z,74.25
2023-05-09T05:45:21.098Z,97.63
2023-05-09T05:46:28.012Z,104.73
2023-05-09T05:47:21.005Z,105.37
2023-05-09T05:48:21.035Z,108.10
2023-05-09T05:49:21.008Z,115.53
2023-05-09T05:50:21.001Z,130.38
2023-05-09T05:51:20.985Z,152.63
2023-05-09T05:52:20.994Z,157.64
2023-05-09T05:53:21.001Z,166.40
2023-05-09T05:54:20.995Z,165.72
2023-05-09T05:55:21.032Z,152.29
2023-05-09T05:56:20.970Z,164.30
2023-05-09T05:57:20.972Z,176.42
2023-05-09T05:58:20.955Z,171.32
2023-05-09T05:59:21.085Z,165.20
2023-05-09T06:00:20.928Z,182.00
2023-05-09T06:01:20.953Z,157.29
2023-05-09T06:02:20.982Z,162.80
2023-05-09T06:03:21.021Z,169.06
2023-05-09T06:04:21.010Z,166.60
2023-05-09T06:05:20.922Z,184.82
2023-05-09T06:06:21.038Z,178.51
2023-05-09T06:07:21.070Z,176.28
2023-05-09T06:08:20.883Z,175.65
2023-05-09T06:09:20.899Z,182.54
2023-05-09T06:10:20.926Z,187.22
2023-05-09T06:11:20.865Z,193.95
2023-05-09T06:12:20.840Z,199.59
2023-05-09T06:13:21.000Z,202.80
2023-05-09T06:14:20.832Z,190.94
2023-05-09T06:15:20.913Z,180.02
2023-05-09T06:16:20.876Z,192.04
2023-05-09T06:17:20.902Z,201.71
2023-05-09T06:18:20.827Z,198.96
2023-05-09T06:19:20.792Z,200.10
2023-05-09T06:20:20.762Z,199.34
2023-05-09T06:21:20.779Z,199.96
2023-05-09T06:22:20.787Z,190.37
2023-05-09T06:23:20.795Z,195.78
2023-05-09T06:24:34.547Z,186.91
2023-05-09T06:25:21.786Z,180.12
2023-05-09T06:26:20.926Z,174.69
2023-05-09T06:27:21.094Z,173.94
2023-05-09T06:28:20.777Z,182.44
2023-05-09T06:29:20.781Z,187.95
2023-05-09T06:31:21.862Z,202.31
2023-05-09T06:32:20.750Z,210.47
2023-05-09T06:33:20.756Z,211.61
2023-05-09T06:34:20.714Z,202.86
2023-05-09T06:35:20.691Z,212.85
2023-05-09T06:36:20.719Z,212.62
2023-05-09T06:37:20.740Z,204.72
2023-05-09T06:38:20.690Z,194.16
2023-05-09T06:39:20.691Z,203.65
2023-05-09T06:40:20.651Z,191.82
2023-05-09T06:41:20.668Z,212.65
2023-05-09T06:42:20.680Z,231.33
2023-05-09T06:43:20.658Z,239.32
2023-05-09T06:44:20.697Z,234.29
2023-05-09T06:45:20.778Z,222.89
2023-05-09T06:46:20.720Z,228.08
2023-05-09T06:47:20.648Z,231.92
2023-05-09T06:48:21.597Z,236.91
2023-05-09T06:49:20.613Z,237.01
2023-05-09T06:50:20.632Z,241.19
2023-05-09T06:51:20.629Z,243.91
2023-05-09T06:52:20.571Z,244.23
2023-05-09T06:53:20.593Z,246.53
2023-05-09T06:54:20.629Z,248.68
2023-05-09T06:55:20.554Z,248.32
2023-05-09T06:56:20.580Z,250.00
2023-05-09T06:57:20.524Z,245.86
2023-05-09T06:58:20.541Z,239.53
2023-05-09T06:59:20.534Z,248.52
2023-05-09T07:00:20.568Z,246.70
2023-05-09T07:01:20.570Z,244.73
2023-05-09T07:02:20.555Z,246.87
2023-05-09T07:03:20.573Z,246.81
2023-05-09T07:04:20.472Z,241.83
2023-05-09T07:05:20.550Z,244.12
2023-05-09T07:06:20.491Z,239.90
2023-05-09T07:07:20.464Z,239.11
2023-05-09T07:08:20.597Z,242.67
2023-05-09T07:09:20.509Z,240.10
2023-05-09T07:10:20.457Z,239.96
2023-05-09T07:11:20.477Z,230.01
2023-05-09T07:12:20.445Z,234.57
2023-05-09T07:13:20.763Z,227.95
2023-05-09T07:14:20.439Z,232.10
2023-05-09T07:15:29.100Z,239.43
2023-05-09T07:16:21.455Z,239.69
2023-05-09T07:17:23.684Z,240.33
2023-05-09T07:18:20.415Z,239.74
2023-05-09T07:19:20.481Z,240.53
2023-05-09T07:20:20.371Z,242.14
2023-05-09T07:21:20.379Z,238.90
2023-05-09T07:22:20.412Z,243.64
2023-05-09T07:23:20.387Z,240.72
2023-05-09T07:24:20.346Z,234.95
2023-05-09T07:25:20.366Z,238.04
2023-05-09T07:26:20.321Z,242.34
2023-05-09T07:27:20.448Z,238.60
2023-05-09T07:28:20.624Z,244.66
2023-05-09T07:29:20.326Z,243.66
2023-05-09T07:30:20.361Z,230.95
2023-05-09T07:31:20.365Z,232.72
2023-05-09T07:32:20.308Z,237.84
2023-05-09T07:33:20.341Z,207.24
2023-05-09T07:34:20.312Z,179.02
2023-05-09T07:35:20.341Z,165.07
2023-05-09T07:36:20.332Z,162.73
2023-05-09T07:37:20.290Z,158.73
2023-05-09T07:38:20.284Z,152.78
2023-05-09T07:39:20.261Z,128.82
2023-05-09T07:40:20.256Z,138.19
2023-05-09T07:41:20.247Z,144.30
2023-05-09T07:42:20.254Z,142.76
2023-05-09T07:43:20.587Z,123.05
2023-05-09T07:44:20.233Z,129.05
2023-05-09T07:45:22.091Z,131.51
2023-05-09T07:46:20.315Z,125.83
2023-05-09T07:47:20.217Z,129.80
2023-05-09T07:48:20.226Z,134.74
2023-05-09T07:49:20.209Z,121.96
2023-05-09T07:50:20.197Z,115.45
2023-05-09T07:51:20.254Z,90.83
2023-05-09T07:52:20.179Z,80.37
2023-05-09T07:53:20.150Z,72.55
2023-05-09T07:54:20.151Z,76.03
2023-05-09T07:55:20.133Z,70.75
2023-05-09T07:56:20.098Z,71.41
2023-05-09T07:57:20.125Z,72.71
2023-05-09T07:58:20.120Z,78.39
2023-05-09T07:59:20.602Z,77.00
2023-05-09T08:00:20.123Z,71.54
2023-05-09T08:01:20.072Z,65.37
2023-05-09T08:02:20.095Z,78.99
2023-05-09T08:03:20.168Z,86.93
2023-05-09T08:04:20.127Z,93.60
2023-05-09T08:05:20.057Z,90.52
2023-05-09T08:06:20.079Z,79.97
2023-05-09T08:07:20.141Z,71.02
2023-05-09T08:08:20.056Z,51.46
2023-05-09T08:09:20.031Z,45.38
2023-05-09T08:10:20.031Z,54.07
2023-05-09T08:11:20.046Z,87.48
2023-05-09T08:12:20.023Z,89.50
2023-05-09T08:13:20.051Z,106.89
2023-05-09T08:14:19.982Z,95.75
2023-05-09T08:15:19.984Z,100.78
2023-05-09T08:16:20.017Z,104.26
2023-05-09T08:17:20.045Z,107.44
2023-05-09T08:18:20.034Z,106.86
2023-05-09T08:19:20.097Z,109.45
2023-05-09T08:20:19.969Z,116.50
2023-05-09T08:21:22.146Z,125.38
2023-05-09T08:22:19.946Z,129.93
2023-05-09T08:23:20.035Z,133.66
2023-05-09T08:24:20.102Z,140.15
2023-05-09T08:25:20.035Z,142.17
2023-05-09T08:26:19.927Z,146.55
2023-05-09T08:27:19.973Z,148.62
2023-05-09T08:28:22.520Z,154.74
2023-05-09T08:29:20.166Z,159.93
2023-05-09T08:30:20.163Z,163.12
2023-05-09T08:31:20.206Z,168.49
2023-05-09T08:32:20.254Z,174.89
2023-05-09T08:33:20.267Z,178.53
2023-05-09T08:34:20.629Z,179.59
2023-05-09T08:35:20.338Z,180.88
2023-05-09T08:36:20.440Z,180.81
2023-05-09T08:37:20.404Z,184.20
2023-05-09T08:38:20.509Z,180.89
2023-05-09T08:39:20.562Z,179.85
2023-05-09T08:40:20.488Z,179.22
2023-05-09T08:41:20.529Z,177.56
2023-05-09T08:42:20.582Z,178.00
2023-05-09T08:43:20.585Z,176.16
2023-05-09T08:44:20.610Z,177.28
2023-05-09T08:45:20.634Z,176.02
2023-05-09T08:46:20.794Z,175.63
2023-05-09T08:47:20.759Z,174.73
2023-05-09T08:48:20.754Z,174.86
2023-05-09T08:49:20.760Z,174.98
2023-05-09T08:50:20.879Z,172.16
2023-05-09T08:51:20.871Z,179.31
2023-05-09T08:52:20.906Z,178.17
2023-05-09T08:53:20.931Z,185.64
2023-05-09T08:54:22.860Z,183.12
2023-05-09T08:55:21.148Z,181.69
2023-05-09T08:56:21.040Z,178.86
2023-05-09T08:57:21.076Z,179.89
2023-05-09T08:58:21.144Z,182.40
2023-05-09T08:59:21.163Z,174.24
2023-05-09T09:00:21.470Z,178.68
2023-05-09T09:01:21.238Z,173.23
2023-05-09T09:02:21.267Z,176.53
2023-05-09T09:03:21.281Z,172.01
2023-05-09T09:04:21.664Z,167.25
2023-05-09T09:05:40.145Z,161.89
2023-05-09T09:06:22.339Z,160.12
2023-05-09T09:07:21.348Z,163.51
2023-05-09T09:08:21.348Z,169.00
2023-05-09T09:09:21.736Z,173.68
2023-05-09T09:10:21.327Z,184.27
2023-05-09T09:11:21.395Z,175.67
2023-05-09T09:12:21.317Z,157.51
2023-05-09T09:13:21.306Z,163.04
2023-05-09T09:14:21.294Z,176.60
2023-05-09T09:15:21.290Z,173.08
2023-05-09T09:16:21.313Z,151.21
2023-05-09T09:17:21.261Z,144.84
2023-05-09T09:18:21.279Z,149.60
2023-05-09T09:19:21.344Z,139.79
2023-05-09T09:20:21.256Z,129.59
2023-05-09T09:21:21.315Z,127.61
2023-05-09T09:22:21.464Z,138.14
2023-05-09T09:23:21.212Z,137.65
2023-05-09T09:24:21.211Z,136.84
2023-05-09T09:25:21.417Z,132.55
2023-05-09T09:26:21.200Z,113.17
2023-05-09T09:27:21.274Z,105.85
2023-05-09T09:28:21.200Z,48.54
2023-05-09T09:29:21.190Z,51.54
2023-05-09T09:30:21.208Z,71.87
2023-05-09T09:31:21.284Z,32.41
2023-05-09T09:32:21.251Z,36.82
2023-05-09T09:33:21.181Z,56.33
2023-05-09T09:34:21.141Z,57.48
2023-05-09T09:35:21.185Z,83.47
2023-05-09T09:36:21.124Z,90.52
2023-05-09T09:37:21.137Z,89.17
2023-05-09T09:38:21.149Z,91.63
2023-05-09T09:39:21.118Z,92.46
2023-05-09T09:40:21.086Z,93.46
2023-05-09T09:41:21.127Z,23.70
2023-05-09T09:42:21.088Z,0.00
2023-05-09T09:43:21.199Z,0.00
2023-05-09T09:44:21.160Z,0.00
2023-05-09T09:45:21.285Z,19.28
2023-05-09T09:46:21.259Z,29.00
2023-05-09T09:47:21.307Z,24.61
2023-05-09T09:48:21.327Z,31.76
2023-05-09T09:49:21.341Z,27.35
2023-05-09T09:50:21.709Z,23.92
2023-05-09T09:51:21.460Z,20.82
2023-05-09T09:52:21.530Z,25.06
2023-05-09T09:53:21.490Z,27.49
2023-05-09T09:54:21.587Z,23.55
2023-05-09T09:55:21.588Z,24.09
2023-05-09T09:56:21.600Z,31.74
2023-05-09T09:57:21.617Z,29.27
2023-05-09T09:58:21.652Z,25.00
2023-05-09T09:59:21.778Z,37.24
2023-05-09T10:00:21.708Z,44.38
2023-05-09T10:01:21.747Z,56.59
2023-05-09T10:02:21.795Z,61.11
2023-05-09T10:03:21.832Z,69.35
2023-05-09T10:04:22.678Z,53.56
2023-05-09T10:05:21.836Z,39.38
2023-05-09T10:06:21.823Z,13.95
2023-05-09T10:07:21.924Z,24.86
2023-05-09T10:08:21.897Z,27.31
2023-05-09T10:09:21.941Z,25.88
2023-05-09T10:10:22.004Z,34.18
2023-05-09T10:11:22.022Z,39.97
2023-05-09T10:12:22.063Z,37.93
2023-05-09T10:13:22.117Z,42.81
2023-05-09T10:14:22.203Z,45.35
2023-05-09T10:15:22.156Z,51.24
2023-05-09T10:16:35.533Z,52.74
2023-05-09T10:17:23.442Z,52.97
2023-05-09T10:18:22.301Z,53.08
2023-05-09T10:19:22.168Z,49.66
2023-05-09T10:20:22.144Z,49.33
2023-05-09T10:21:22.224Z,44.02
2023-05-09T10:22:22.179Z,41.23
2023-05-09T10:23:22.124Z,30.17
2023-05-09T10:24:22.127Z,22.47
2023-05-09T10:25:22.118Z,18.04
2023-05-09T10:26:22.086Z,34.05
2023-05-09T10:27:22.131Z,27.59
2023-05-09T10:28:22.083Z,26.72
2023-05-09T10:29:22.072Z,25.54
2023-05-09T10:30:22.218Z,33.78
2023-05-09T10:31:22.177Z,50.84
2023-05-09T10:32:22.033Z,57.77
2023-05-09T10:33:22.065Z,61.41
2023-05-09T10:34:22.036Z,40.66
2023-05-09T10:35:22.165Z,38.46
2023-05-09T10:36:22.021Z,28.17
2023-05-09T10:37:22.073Z,0.00
2023-05-09T10:38:22.101Z,14.48
2023-05-09T10:39:22.186Z,36.88
2023-05-09T10:40:22.683Z,46.74
2023-05-09T10:41:22.334Z,50.98
2023-05-09T10:42:22.396Z,64.54
2023-05-09T10:43:22.404Z,65.04
2023-05-09T10:44:22.511Z,71.20
2023-05-09T10:45:22.562Z,58.58
2023-05-09T10:46:22.623Z,63.45
2023-05-09T10:47:22.755Z,76.52
2023-05-09T10:48:22.672Z,89.29
2023-05-09T10:49:22.747Z,95.20
2023-05-09T10:50:23.205Z,98.19
2023-05-09T10:51:22.860Z,101.87
2023-05-09T10:52:22.921Z,83.66
2023-05-09T10:53:22.897Z,99.06
2023-05-09T10:54:22.937Z,65.62
2023-05-09T10:55:22.987Z,58.83
2023-05-09T10:56:23.024Z,79.37
2023-05-09T10:57:23.106Z,87.59
2023-05-09T10:58:23.131Z,50.02
2023-05-09T10:59:23.179Z,25.00
2023-05-09T11:00:23.227Z,20.81
2023-05-09T11:01:23.288Z,28.80
2023-05-09T11:02:23.348Z,32.16
2023-05-09T11:03:23.531Z,26.55
2023-05-09T11:04:23.462Z,43.73
2023-05-09T11:05:23.545Z,54.77
2023-05-09T11:06:23.526Z,31.87
2023-05-09T11:07:23.598Z,53.23
2023-05-09T11:08:23.652Z,63.28
2023-05-09T11:09:23.635Z,55.16
2023-05-09T11:10:23.646Z,30.70
2023-05-09T11:11:23.726Z,8.68
2023-05-09T11:12:23.731Z,0.08
2023-05-09T11:13:23.810Z,6.38
2023-05-09T11:14:23.890Z,0.00
2023-05-09T11:15:23.870Z,0.00
2023-05-09T11:16:23.927Z,16.98
2023-05-09T11:17:23.918Z,28.89
2023-05-09T11:18:23.898Z,25.13
2023-05-09T11:19:23.998Z,26.54
2023-05-09T11:20:23.956Z,13.91
2023-05-09T11:21:23.959Z,25.22
2023-05-09T11:22:24.019Z,35.87
2023-05-09T11:23:23.972Z,50.72
2023-05-09T11:24:24.024Z,38.12
2023-05-09T11:25:25.035Z,36.09
2023-05-09T11:26:24.030Z,32.80
2023-05-09T11:27:24.075Z,49.15
2023-05-09T11:28:24.056Z,67.75
2023-05-09T11:29:24.101Z,80.82
2023-05-09T11:30:24.183Z,90.74
2023-05-09T11:31:24.859Z,93.11
2023-05-09T11:32:24.305Z,97.61
2023-05-09T11:33:24.401Z,102.33
2023-05-09T11:34:24.404Z,104.93
2023-05-09T11:35:24.477Z,108.39
2023-05-09T11:36:24.699Z,112.39
2023-05-09T11:37:24.462Z,113.31
2023-05-09T11:38:24.539Z,116.71
2023-05-09T11:39:24.494Z,118.85
2023-05-09T11:40:24.537Z,121.25
2023-05-09T11:41:24.764Z,123.23
2023-05-09T11:42:24.590Z,125.72
2023-05-09T11:43:24.605Z,126.76
2023-05-09T11:44:24.625Z,127.95
2023-05-09T11:45:24.624Z,130.61
2023-05-09T11:46:24.706Z,132.90
2023-05-09T11:47:24.680Z,134.62
2023-05-09T11:48:24.642Z,136.31
2023-05-09T11:49:24.712Z,137.16
2023-05-09T11:50:24.697Z,138.95
2023-05-09T11:51:24.783Z,141.71
2023-05-09T11:52:24.732Z,142.08
2023-05-09T11:53:24.709Z,144.32
2023-05-09T11:54:24.743Z,145.50
2023-05-09T11:55:24.717Z,147.43
2023-05-09T11:56:25.209Z,148.02
2023-05-09T11:57:24.713Z,148.92
2023-05-09T11:58:24.699Z,150.45
2023-05-09T11:59:24.713Z,151.46
2023-05-09T12:00:24.717Z,154.00
2023-05-09T12:01:24.741Z,154.72
2023-05-09T12:02:24.792Z,156.11
2023-05-09T12:03:24.919Z,156.79
2023-05-09T12:04:24.853Z,158.07
2023-05-09T12:05:24.744Z,158.78
2023-05-09T12:06:24.757Z,158.68
2023-05-09T12:07:24.854Z,153.85
2023-05-09T12:08:24.769Z,147.77
2023-05-09T12:09:24.762Z,142.85
2023-05-09T12:10:24.763Z,139.61
2023-05-09T12:11:24.785Z,143.02
2023-05-09T12:12:24.755Z,142.63
2023-05-09T12:13:24.808Z,136.59
2023-05-09T12:14:24.753Z,132.44
2023-05-09T12:15:24.758Z,127.23
2023-05-09T12:16:24.810Z,124.77
2023-05-09T12:17:24.767Z,129.15
2023-05-09T12:18:24.736Z,133.25
2023-05-09T12:19:24.728Z,130.12
2023-05-09T12:20:24.724Z,124.35
2023-05-09T12:21:24.717Z,125.03
2023-05-09T12:22:24.746Z,125.87
2023-05-09T12:23:24.817Z,122.21
2023-05-09T12:24:24.715Z,115.70
2023-05-09T12:25:24.743Z,110.20
2023-05-09T12:26:24.771Z,120.55
2023-05-09T12:27:24.733Z,130.07
2023-05-09T12:28:24.734Z,131.20
2023-05-09T12:29:24.756Z,135.61
2023-05-09T12:30:24.749Z,140.38
2023-05-09T12:31:24.765Z,137.32
2023-05-09T12:32:24.738Z,136.47
2023-05-09T12:33:24.727Z,134.45
2023-05-09T12:34:24.710Z,138.35
2023-05-09T12:35:24.720Z,144.08
2023-05-09T12:36:24.716Z,141.95
2023-05-09T12:37:24.700Z,143.66
2023-05-09T12:38:24.737Z,147.04
2023-05-09T12:39:24.808Z,145.09
2023-05-09T12:40:24.773Z,146.85
2023-05-09T12:42:24.783Z,151.96
2023-05-09T12:43:24.781Z,151.38
2023-05-09T12:44:24.720Z,153.19
2023-05-09T12:45:24.770Z,154.09
2023-05-09T12:46:24.814Z,153.34